Wild Rice, North Dakota
Current Conditions -  °F | °C
As of 5:31 AM on Monday 29 Dec 2014 (Local Time) from KJKJ Reporting Station
Clear Clear  
Wind Chill: -26°   Ceiling: Unl
Heat Index: -8°   Visibility: 10mi
Dew Point: -9°   Wind: 10mph
Humidity: 92%   Direction: 360°N
Pressure: 30.59"   Gusts: NA
Location:  46.7039°N, 96.8572°W
Report Text: KJKJ 291131Z AUTO 36009KT 10SM CLR M22/M23 A3059 RMK AO2
Loading
Personal Weather Stations






























Interactive Weather Map New forecast layout! Learn more

10-Day Weather Forecast

Advertisements
Track Severe Weather on mobile